Time;durP1;ratioP1;P1;durP2;ratioP2;P2;SDS_P1;SDS_P2;PMS_P1;PMS_P2;Temp;Humidity;BMP_temperature;BMP_pressure;BME280_temperature;BME280_humidity;BME280_pressure;Samples;Min_cycle;Max_cycle;Signal;HPM_P1;HPM_P2
2023/07/06 00:01:10;;;;;;;19.73;9.77;;;;;;;21.09;nan;100278.28;5037628;28;20022;-70
2023/07/06 00:03:37;;;;;;;13.00;9.95;;;;;;;21.03;nan;100276.81;5033927;28;20037;-71
2023/07/06 00:06:07;;;;;;;12.90;9.35;;;;;;;21.06;nan;100286.13;5039965;28;20885;-69
2023/07/06 00:08:32;;;;;;;13.50;9.38;;;;;;;20.87;nan;100262.13;5034559;28;20017;-69
2023/07/06 00:10:58;;;;;;;16.55;10.52;;;;;;;21.07;nan;100293.88;5037858;28;20116;-69
2023/07/06 00:13:25;;;;;;;15.30;9.77;;;;;;;20.96;nan;100292.47;5036110;28;20043;-69
2023/07/06 00:15:51;;;;;;;15.10;9.50;;;;;;;20.84;nan;100292.97;5037870;28;20575;-68
2023/07/06 00:18:18;;;;;;;14.23;9.98;;;;;;;20.82;nan;100298.59;5036928;28;20017;-69
2023/07/06 00:20:43;;;;;;;12.52;9.73;;;;;;;20.78;nan;100288.78;5036154;28;20052;-69
2023/07/06 00:23:10;;;;;;;15.40;9.98;;;;;;;20.74;nan;100285.13;5034903;28;20022;-69
2023/07/06 00:25:41;;;;;;;14.68;10.48;;;;;;;20.72;nan;100281.97;5067109;28;20024;-69
2023/07/06 00:28:08;;;;;;;17.40;10.77;;;;;;;20.74;nan;100277.91;5035904;28;20009;-71
2023/07/06 00:33:13;;;;;;;14.55;10.50;;;;;;;20.66;nan;100270.53;5039829;28;20010;-71
2023/07/06 00:35:42;;;;;;;15.50;9.63;;;;;;;20.56;nan;100263.47;5036371;28;21165;-69
2023/07/06 00:38:16;;;;;;;15.63;10.35;;;;;;;20.55;nan;100272.63;5043447;28;20018;-71
2023/07/06 00:40:44;;;;;;;16.73;9.88;;;;;;;20.37;nan;100252.03;5050096;28;20083;-70
2023/07/06 00:43:17;;;;;;;12.40;10.00;;;;;;;20.51;nan;100276.13;5034681;28;20021;-69
2023/07/06 00:45:44;;;;;;;14.63;9.80;;;;;;;20.50;nan;100279.91;5038810;28;20033;-69
2023/07/06 00:48:21;;;;;;;14.68;9.85;;;;;;;20.44;nan;100273.84;5035423;28;20052;-69
2023/07/06 00:50:53;;;;;;;13.52;9.50;;;;;;;20.39;nan;100271.25;5038208;28;20029;-69
2023/07/06 00:53:21;;;;;;;15.27;10.30;;;;;;;20.36;nan;100269.19;5035580;28;20431;-70
2023/07/06 00:55:47;;;;;;;15.80;9.68;;;;;;;20.35;nan;100257.69;5035850;28;20040;-69
2023/07/06 00:58:25;;;;;;;14.23;9.77;;;;;;;20.35;nan;100247.00;5035789;28;20013;-70
2023/07/06 01:00:54;;;;;;;12.07;9.80;;;;;;;20.31;nan;100245.97;5031000;28;20550;-67
2023/07/06 01:03:21;;;;;;;16.48;10.70;;;;;;;20.32;nan;100252.91;5036572;28;20018;-68
2023/07/06 01:05:55;;;;;;;15.38;9.80;;;;;;;20.22;nan;100247.72;5066399;28;20614;-70
2023/07/06 01:08:23;;;;;;;12.80;9.88;;;;;;;20.28;nan;100265.28;5043786;28;20110;-70
2023/07/06 01:10:49;;;;;;;18.02;10.05;;;;;;;20.24;nan;100250.13;5037571;28;20045;-71
2023/07/06 01:13:14;;;;;;;15.00;10.32;;;;;;;20.15;nan;100245.44;5035712;28;20028;-69
2023/07/06 01:15:54;;;;;;;12.75;9.95;;;;;;;20.16;nan;100255.06;5035947;28;20567;-70
2023/07/06 01:18:34;;;;;;;16.65;9.90;;;;;;;20.14;nan;100259.91;5039918;28;20013;-73
2023/07/06 01:21:16;;;;;;;16.55;10.70;;;;;;;20.04;nan;100256.56;5039413;28;20384;-71
2023/07/06 01:24:20;;;;;;;13.30;9.55;;;;;;;20.04;nan;100260.06;5045754;28;20014;-72
2023/07/06 01:27:07;;;;;;;13.13;9.55;;;;;;;20.10;nan;100271.47;5039058;28;20487;-73
2023/07/06 01:29:52;;;;;;;15.07;9.77;;;;;;;20.15;nan;100279.41;5039597;28;20483;-73
2023/07/06 01:32:25;;;;;;;13.57;10.07;;;;;;;20.17;nan;100277.22;5041289;28;20033;-72
2023/07/06 01:35:10;;;;;;;14.43;10.10;;;;;;;20.06;nan;100281.94;5067947;28;20032;-73
2023/07/06 01:37:42;;;;;;;15.68;9.52;;;;;;;20.02;nan;100272.13;5036876;28;20032;-70
2023/07/06 01:40:11;;;;;;;15.23;9.95;;;;;;;19.94;nan;100276.25;5069613;28;20017;-69
2023/07/06 01:42:38;;;;;;;14.30;10.88;;;;;;;19.90;nan;100278.72;5035039;28;20037;-69
2023/07/06 01:45:08;;;;;;;15.10;10.02;;;;;;;19.89;nan;100287.78;5038262;28;20017;-69
2023/07/06 01:47:43;;;;;;;14.70;10.23;;;;;;;19.88;nan;100282.75;5034356;28;20018;-70
2023/07/06 01:50:12;;;;;;;15.75;10.48;;;;;;;19.86;nan;100272.34;5037631;28;20078;-69
2023/07/06 01:52:37;;;;;;;15.43;10.65;;;;;;;19.90;nan;100280.59;5041444;28;20030;-70
2023/07/06 01:55:43;;;;;;;19.80;10.45;;;;;;;19.90;nan;100281.38;5040050;28;20029;-71
2023/07/06 01:58:29;;;;;;;13.65;10.27;;;;;;;19.79;nan;100279.94;4968612;28;21272;-72
2023/07/06 02:01:04;;;;;;;17.27;10.40;;;;;;;19.74;nan;100280.81;4971232;28;20035;-72
2023/07/06 02:03:30;;;;;;;14.93;10.63;;;;;;;19.82;nan;100299.94;4967849;28;20583;-71
2023/07/06 02:05:56;;;;;;;15.00;10.82;;;;;;;19.68;nan;100281.16;4963202;28;20034;-72
2023/07/06 02:08:23;;;;;;;15.68;10.32;;;;;;;19.75;nan;100298.44;4983962;28;20025;-73
2023/07/06 02:10:50;;;;;;;17.27;10.13;;;;;;;19.80;nan;100304.78;4988922;28;20520;-72
2023/07/06 02:13:16;;;;;;;12.93;10.13;;;;;;;19.88;nan;100315.63;4986233;28;20093;-72
2023/07/06 02:15:42;;;;;;;17.23;9.77;;;;;;;19.66;nan;100292.13;4989376;28;20084;-72
2023/07/06 02:18:07;;;;;;;15.10;9.70;;;;;;;19.75;nan;100287.75;4996040;28;20026;-73
2023/07/06 02:20:34;;;;;;;15.23;10.25;;;;;;;19.54;nan;100275.72;4996180;28;20030;-74
2023/07/06 02:23:00;;;;;;;16.08;10.70;;;;;;;19.70;nan;100295.81;5007142;28;20022;-73
2023/07/06 02:25:25;;;;;;;17.52;10.63;;;;;;;19.61;nan;100292.19;5004249;28;20030;-73
2023/07/06 02:27:51;;;;;;;14.52;10.27;;;;;;;19.71;nan;100302.75;4990710;28;20026;-70
2023/07/06 02:30:17;;;;;;;17.35;10.85;;;;;;;19.72;nan;100300.88;4987144;28;20023;-68
2023/07/06 02:32:42;;;;;;;22.70;10.98;;;;;;;19.66;nan;100289.44;5031563;28;20411;-69
2023/07/06 02:35:12;;;;;;;17.13;10.75;;;;;;;19.78;nan;100302.41;5050980;28;20025;-70
2023/07/06 02:37:38;;;;;;;;;;;;;;;19.81;nan;100312.50;5051129;28;20024;-74
2023/07/06 02:40:10;;;;;;;14.27;10.32;;;;;;;19.82;nan;100308.75;5050314;28;19932;-73
2023/07/06 02:42:36;;;;;;;15.82;10.20;;;;;;;19.89;nan;100306.50;5042372;28;20016;-71
2023/07/06 02:45:04;;;;;;;19.67;10.90;;;;;;;19.90;nan;100308.09;5044759;28;20021;-72
2023/07/06 02:47:30;;;;;;;16.13;10.57;;;;;;;19.75;nan;100285.06;5040380;28;20120;-73
2023/07/06 02:49:55;;;;;;;18.08;10.73;;;;;;;19.75;nan;100285.06;5042931;28;20053;-70
2023/07/06 02:52:21;;;;;;;18.08;10.57;;;;;;;19.81;nan;100295.69;5043802;28;20105;-68
2023/07/06 02:54:47;;;;;;;20.20;10.50;;;;;;;19.75;nan;100295.75;5046098;28;20017;-69
2023/07/06 02:57:15;;;;;;;14.50;10.40;;;;;;;19.77;nan;100303.47;5046363;28;20503;-70
2023/07/06 02:59:41;;;;;;;15.68;10.27;;;;;;;19.65;nan;100300.41;5041204;28;20036;-69
2023/07/06 03:02:09;;;;;;;17.23;10.77;;;;;;;19.51;nan;100281.63;5051796;28;20105;-70
2023/07/06 03:04:34;;;;;;;20.70;10.23;;;;;;;19.60;nan;100298.59;5043969;28;20014;-69
2023/07/06 03:07:00;;;;;;;14.30;11.02;;;;;;;19.36;nan;100268.47;5045887;28;20074;-69
2023/07/06 03:09:26;;;;;;;21.80;10.93;;;;;;;19.48;nan;100288.31;5044436;28;20021;-71
2023/07/06 03:11:52;;;;;;;17.52;11.15;;;;;;;19.58;nan;100298.09;5048875;28;20116;-70
2023/07/06 03:14:21;;;;;;;14.98;10.38;;;;;;;19.57;nan;100293.03;5047432;28;20117;-71
2023/07/06 03:16:47;;;;;;;;;;;;;;;19.65;nan;100298.53;5045776;28;20025;-69
2023/07/06 03:19:23;;;;;;;15.63;10.63;;;;;;;19.70;nan;100301.16;5057010;28;19920;-70
2023/07/06 03:22:01;;;;;;;14.48;10.20;;;;;;;19.75;nan;100311.78;5052365;28;20056;-70
2023/07/06 03:24:54;;;;;;;19.33;11.15;;;;;;;19.79;nan;100303.19;5046381;28;20102;-69
2023/07/06 03:27:19;;;;;;;19.02;10.15;;;;;;;19.80;nan;100300.25;5043822;28;20135;-70
2023/07/06 03:29:54;;;;;;;18.50;10.20;;;;;;;19.80;nan;100300.25;5046540;28;20064;-68
2023/07/06 03:32:20;;;;;;;13.48;10.02;;;;;;;19.75;nan;100300.28;5041284;28;20024;-71
2023/07/06 03:34:45;;;;;;;16.73;10.48;;;;;;;19.73;nan;100305.94;5042594;28;20021;-71
2023/07/06 03:37:11;;;;;;;19.27;10.95;;;;;;;19.71;nan;100302.75;5076681;28;20025;-67
2023/07/06 03:39:36;;;;;;;14.48;10.77;;;;;;;19.76;nan;100310.69;5047386;28;20038;-68
2023/07/06 03:42:02;;;;;;;15.50;10.80;;;;;;;19.76;nan;100309.91;5041744;28;20105;-68
2023/07/06 03:44:27;;;;;;;19.00;10.20;;;;;;;19.79;nan;100312.00;5045606;28;20022;-72
2023/07/06 03:46:53;;;;;;;20.25;10.68;;;;;;;19.76;nan;100305.34;5042599;28;20042;-70
2023/07/06 03:49:18;;;;;;;14.70;9.90;;;;;;;19.74;nan;100302.16;5041381;28;20571;-69
2023/07/06 03:51:46;;;;;;;20.50;11.00;;;;;;;19.75;nan;100298.44;5044498;28;20057;-71
2023/07/06 03:54:12;;;;;;;18.52;10.48;;;;;;;19.12;nan;100215.91;5044726;28;20075;-71
2023/07/06 03:56:37;;;;;;;16.98;9.95;;;;;;;19.71;nan;100308.09;5047266;28;20017;-70
2023/07/06 03:59:05;;;;;;;14.60;10.90;;;;;;;19.70;nan;100306.50;5047450;28;20023;-70
2023/07/06 04:01:31;;;;;;;16.58;10.73;;;;;;;19.69;nan;100310.25;5050030;28;20013;-71
2023/07/06 04:03:57;;;;;;;17.73;10.85;;;;;;;19.77;nan;100317.63;5071104;28;20095;-70
2023/07/06 04:06:28;;;;;;;20.85;10.73;;;;;;;19.72;nan;100301.66;5042107;28;20021;-69
2023/07/06 04:08:56;;;;;;;17.58;10.63;;;;;;;19.77;nan;100309.59;5041451;28;20647;-69
2023/07/06 04:11:22;;;;;;;19.67;10.38;;;;;;;19.83;nan;100310.34;5042281;28;20095;-69
2023/07/06 04:13:57;;;;;;;19.00;10.68;;;;;;;19.81;nan;100301.81;5043290;28;20033;-71
2023/07/06 04:16:25;;;;;;;20.85;10.18;;;;;;;19.90;nan;100301.97;5041286;28;20410;-67
2023/07/06 04:18:55;;;;;;;18.15;10.23;;;;;;;19.93;nan;100309.41;5042518;28;20032;-67
2023/07/06 04:21:22;;;;;;;26.65;11.50;;;;;;;19.95;nan;100301.91;5040593;28;20029;-69
2023/07/06 04:23:50;;;;;;;16.70;10.00;;;;;;;20.03;nan;100301.22;5042478;28;20024;-67
2023/07/06 04:26:17;;;;;;;22.35;10.30;;;;;;;20.11;nan;100305.94;5044696;28;20014;-70
2023/07/06 04:28:42;;;;;;;17.88;10.70;;;;;;;20.06;nan;100297.19;5041394;28;20056;-72
2023/07/06 04:31:10;;;;;;;20.05;11.13;;;;;;;20.06;nan;100305.19;5040097;28;20564;-69
2023/07/06 04:33:36;;;;;;;20.58;11.38;;;;;;;20.18;nan;100318.91;5037350;28;21031;-71
2023/07/06 04:36:03;;;;;;;20.15;10.73;;;;;;;20.25;nan;100324.69;5035404;28;20030;-70
2023/07/06 04:38:29;;;;;;;15.07;10.38;;;;;;;20.23;nan;100312.69;5036142;28;20034;-70
2023/07/06 04:40:55;;;;;;;15.55;10.18;;;;;;;20.26;nan;100304.09;5036701;28;20045;-71
2023/07/06 04:43:21;;;;;;;20.48;10.60;;;;;;;20.37;nan;100325.03;5038493;28;20044;-70
2023/07/06 04:45:46;;;;;;;19.65;10.68;;;;;;;20.44;nan;100324.66;5036355;28;20025;-71
2023/07/06 04:48:12;;;;;;;15.90;9.88;;;;;;;20.45;nan;100330.78;5036185;28;20334;-70
2023/07/06 04:53:16;;;;;;;15.30;10.13;;;;;;;20.43;nan;100312.38;5243407;22;20408;-68
2023/07/06 04:55:42;;;;;;;17.05;10.13;;;;;;;20.33;nan;100277.78;4966988;28;20025;-70
2023/07/06 04:58:09;;;;;;;14.48;10.18;;;;;;;20.62;nan;100315.03;4971057;28;20129;-69
2023/07/06 05:00:37;;;;;;;15.68;10.27;;;;;;;20.64;nan;100309.38;4974433;28;20460;-69
2023/07/06 05:03:06;;;;;;;18.67;10.32;;;;;;;20.68;nan;100302.34;4972286;28;20025;-74
2023/07/06 05:05:36;;;;;;;15.23;9.73;;;;;;;20.73;nan;100299.59;4955657;28;20026;-75
2023/07/06 05:08:02;;;;;;;18.00;9.65;;;;;;;20.85;nan;100315.16;4971832;28;20062;-74
2023/07/06 05:10:28;;;;;;;16.42;9.23;;;;;;;20.91;nan;100317.47;4968709;28;20066;-73
2023/07/06 05:12:55;;;;;;;12.10;9.15;;;;;;;20.97;nan;100310.94;4949748;28;20062;-76
2023/07/06 05:15:21;;;;;;;17.20;9.50;;;;;;;21.06;nan;100313.69;4971880;28;20025;-69
2023/07/06 05:17:46;;;;;;;18.38;9.48;;;;;;;21.16;nan;100318.06;4969903;28;20121;-75
2023/07/06 05:20:15;;;;;;;20.05;9.25;;;;;;;21.31;nan;100333.84;4970435;28;20457;-74
2023/07/06 05:22:42;;;;;;;11.30;8.37;;;;;;;21.33;nan;100323.59;4970192;28;20117;-74
2023/07/06 05:25:08;;;;;;;13.50;8.88;;;;;;;21.52;nan;100328.09;4964955;28;20280;-68
2023/07/06 05:27:34;;;;;;;15.30;8.98;;;;;;;21.58;nan;100332.25;4953868;28;20030;-69
2023/07/06 05:29:59;;;;;;;13.52;8.38;;;;;;;21.65;nan;100328.06;4966899;28;20499;-69
2023/07/06 05:32:25;;;;;;;18.00;9.60;;;;;;;21.64;nan;100333.72;4966783;28;20115;-69
2023/07/06 05:34:50;;;;;;;16.40;8.77;;;;;;;21.69;nan;100332.81;4969490;28;20035;-70
2023/07/06 05:37:16;;;;;;;17.83;8.57;;;;;;;21.81;nan;100338.47;4968717;28;20019;-69
2023/07/06 05:39:41;;;;;;;15.50;9.20;;;;;;;21.85;nan;100342.91;4968393;28;20420;-68
2023/07/06 05:42:06;;;;;;;12.02;8.57;;;;;;;21.82;nan;100322.09;4969069;28;20026;-67
2023/07/06 05:44:32;;;;;;;16.73;8.75;;;;;;;21.86;nan;100323.06;4966195;28;20253;-69
2023/07/06 05:46:57;;;;;;;16.42;8.90;;;;;;;21.96;nan;100334.66;4966850;28;20030;-67
2023/07/06 05:49:23;;;;;;;11.88;8.55;;;;;;;21.99;nan;100326.81;4969000;28;20451;-69
2023/07/06 05:51:48;;;;;;;16.13;8.35;;;;;;;22.00;nan;100328.38;4969685;28;20600;-70
2023/07/06 05:54:13;;;;;;;12.57;8.27;;;;;;;22.11;nan;100331.63;4983740;28;20458;-70
2023/07/06 05:56:40;;;;;;;12.27;8.93;;;;;;;22.22;nan;100335.69;4983528;28;20460;-68
2023/07/06 05:59:08;;;;;;;14.48;8.73;;;;;;;22.25;nan;100328.94;4965611;28;20094;-70
2023/07/06 06:01:34;;;;;;;13.57;8.13;;;;;;;22.32;nan;100334.66;4968242;28;20062;-69
2023/07/06 06:04:01;;;;;;;12.43;8.75;;;;;;;22.36;nan;100326.78;4967043;28;20035;-69
2023/07/06 06:06:27;;;;;;;11.48;8.23;;;;;;;22.46;nan;100335.38;4966392;28;20552;-71
2023/07/06 06:08:53;;;;;;;13.55;8.23;;;;;;;22.47;nan;100328.13;4967278;28;20035;-70
2023/07/06 06:11:19;;;;;;;8.77;7.65;;;;;;;22.60;nan;100340.69;4944620;28;20030;-69
2023/07/06 06:13:45;;;;;;;15.73;8.07;;;;;;;22.65;nan;100337.06;4969669;28;20031;-69
2023/07/06 06:16:13;;;;;;;10.48;7.30;;;;;;;22.61;nan;100318.09;4967974;28;20081;-69
2023/07/06 06:18:39;;;;;;;12.13;8.07;;;;;;;;;;4967061;28;20033;-69
2023/07/06 06:21:05;;;;;;;14.90;8.50;;;;;;;22.85;nan;100343.81;4967073;28;20035;-71
2023/07/06 06:23:32;;;;;;;13.32;8.07;;;;;;;22.88;nan;100332.44;4951168;28;20027;-70
2023/07/06 06:25:57;;;;;;;12.00;7.75;;;;;;;23.00;nan;100342.63;4948947;28;20031;-69
2023/07/06 06:28:23;;;;;;;9.57;7.20;;;;;;;23.01;nan;100339.66;4965517;28;20053;-70
2023/07/06 06:30:48;;;;;;;12.65;8.13;;;;;;;23.16;nan;100349.19;4965998;28;20031;-69
2023/07/06 06:33:14;;;;;;;16.58;7.35;;;;;;;23.21;nan;100348.25;4967995;28;20146;-71
2023/07/06 06:35:39;;;;;;;10.27;7.65;;;;;;;23.28;nan;100349.38;4968036;28;20034;-70
2023/07/06 06:38:08;;;;;;;12.73;8.57;;;;;;;23.34;nan;100347.34;4949748;28;20518;-71
2023/07/06 06:40:36;;;;;;;14.13;8.70;;;;;;;23.33;nan;100335.81;4966074;28;20532;-71
2023/07/06 06:43:23;;;;;;;12.63;7.55;;;;;;;23.45;nan;100345.16;4968243;28;20400;-69
2023/07/06 06:45:49;;;;;;;11.32;8.40;;;;;;;23.44;nan;100336.31;4968801;28;20396;-71
2023/07/06 06:48:14;;;;;;;12.95;7.80;;;;;;;23.54;nan;100332.53;4968362;28;20015;-72
2023/07/06 06:50:39;;;;;;;11.85;8.43;;;;;;;23.64;nan;100340.31;4972726;28;20800;-72
2023/07/06 06:53:05;;;;;;;9.55;8.52;;;;;;;23.65;nan;100328.44;4973407;28;20043;-71
2023/07/06 06:55:30;;;;;;;12.38;8.88;;;;;;;23.77;nan;100352.03;4972105;28;20027;-72
2023/07/06 06:57:59;;;;;;;10.48;8.40;;;;;;;23.74;nan;100334.66;4972416;28;20106;-72
2023/07/06 07:00:24;;;;;;;10.65;8.98;;;;;;;23.90;nan;100345.75;4970794;28;20726;-74
2023/07/06 07:02:50;;;;;;;11.38;8.45;;;;;;;23.92;nan;100345.41;4969827;28;20041;-70
2023/07/06 07:05:20;;;;;;;10.75;8.30;;;;;;;23.99;nan;100343.84;4955969;28;20247;-71
2023/07/06 07:07:45;;;;;;;11.32;7.88;;;;;;;24.12;nan;100344.00;4971397;28;20031;-72
2023/07/06 07:10:11;;;;;;;9.65;8.60;;;;;;;24.25;nan;100340.34;4971565;28;20482;-73
2023/07/06 07:12:39;;;;;;;16.23;8.98;;;;;;;24.22;nan;100335.59;4970005;28;20081;-71
2023/07/06 07:15:06;;;;;;;10.70;8.60;;;;;;;24.25;nan;100332.25;4972346;28;20027;-73
2023/07/06 07:17:31;;;;;;;11.45;8.43;;;;;;;24.33;nan;100331.47;4969482;28;20089;-70
2023/07/06 07:19:56;;;;;;;12.60;8.13;;;;;;;24.44;nan;100337.31;4986271;28;20028;-73
2023/07/06 07:22:22;;;;;;;13.82;8.15;;;;;;;24.42;nan;100323.38;4971987;28;20511;-70
2023/07/06 07:24:47;;;;;;;11.93;8.77;;;;;;;24.51;nan;100337.63;4969842;28;20089;-71
2023/07/06 07:27:13;;;;;;;11.98;8.32;;;;;;;24.35;nan;100302.34;4949560;28;20129;-70
2023/07/06 07:29:46;;;;;;;10.18;8.13;;;;;;;24.59;nan;100336.03;4969981;28;20026;-69
2023/07/06 07:32:11;;;;;;;11.18;8.60;;;;;;;24.57;nan;100327.50;4970821;28;20049;-70
2023/07/06 07:34:37;;;;;;;10.02;8.30;;;;;;;24.71;nan;100341.56;4970776;28;20473;-70
2023/07/06 07:37:02;;;;;;;11.80;8.35;;;;;;;24.73;nan;100331.25;4986123;28;20027;-68
2023/07/06 07:39:28;;;;;;;14.48;8.52;;;;;;;24.80;nan;100334.22;4970248;28;20023;-70
2023/07/06 07:41:53;;;;;;;9.63;8.30;;;;;;;24.86;nan;100323.31;4951363;28;20178;-70
2023/07/06 07:44:19;;;;;;;9.40;7.85;;;;;;;24.99;nan;100331.16;4945032;28;20035;-71
2023/07/06 07:46:44;;;;;;;10.93;8.30;;;;;;;25.08;nan;100333.81;4968052;28;20045;-67
2023/07/06 07:49:10;;;;;;;10.40;7.93;;;;;;;25.12;nan;100333.97;4951159;28;20066;-71
2023/07/06 07:51:35;;;;;;;9.27;8.25;;;;;;;25.20;nan;100336.63;4952932;28;20745;-70
2023/07/06 07:54:01;;;;;;;12.23;8.55;;;;;;;25.21;nan;100330.16;4970789;28;20037;-70
2023/07/06 07:56:26;;;;;;;13.30;8.68;;;;;;;25.32;nan;100337.84;4983711;28;20034;-68
2023/07/06 07:58:52;;;;;;;10.23;7.72;;;;;;;25.32;nan;100327.84;4946865;28;20774;-69
2023/07/06 08:01:27;;;;;;;12.63;8.20;;;;;;;25.37;nan;100327.66;4969689;28;20031;-67
2023/07/06 08:03:54;;;;;;;10.88;7.75;;;;;;;25.58;nan;100332.31;4969468;28;20027;-69
2023/07/06 08:06:21;;;;;;;9.68;8.05;;;;;;;25.72;nan;100340.16;4970581;28;20046;-68
2023/07/06 08:08:47;;;;;;;10.88;7.47;;;;;;;25.76;nan;100344.53;4970186;28;20085;-68
2023/07/06 08:11:21;;;;;;;10.15;8.27;;;;;;;25.80;nan;100336.59;4984182;28;20432;-68
2023/07/06 08:13:51;;;;;;;11.57;7.93;;;;;;;25.85;nan;100341.78;4943594;28;20452;-69
2023/07/06 08:16:21;;;;;;;9.80;7.80;;;;;;;25.90;nan;100344.31;4969072;28;20051;-70
2023/07/06 08:18:48;;;;;;;11.13;8.15;;;;;;;25.97;nan;100343.78;4970000;28;20113;-69
2023/07/06 08:21:14;;;;;;;11.15;8.50;;;;;;;25.96;nan;100329.53;4967537;28;20034;-69
2023/07/06 08:23:47;;;;;;;13.00;8.50;;;;;;;26.07;nan;100344.19;4950934;28;20396;-69
2023/07/06 08:26:12;;;;;;;16.27;8.45;;;;;;;26.13;nan;100338.59;4969552;28;20093;-70
2023/07/06 08:28:39;;;;;;;11.63;8.98;;;;;;;26.21;nan;100335.78;4968590;28;20031;-69
2023/07/06 08:31:12;;;;;;;33.78;26.60;;;;;;;26.34;nan;100336.63;4967980;28;20041;-70
2023/07/06 08:33:38;;;;;;;11.02;8.70;;;;;;;26.37;nan;100327.88;4969896;28;20023;-68
2023/07/06 08:36:04;;;;;;;9.23;7.93;;;;;;;26.49;nan;100336.00;4968065;28;20042;-68
2023/07/06 08:38:33;;;;;;;15.00;8.48;;;;;;;26.52;nan;100343.44;4956327;28;20398;-69
2023/07/06 08:41:09;;;;;;;11.23;8.48;;;;;;;26.61;nan;100337.97;4951474;28;20043;-69
2023/07/06 08:43:36;;;;;;;10.93;8.50;;;;;;;26.64;nan;100326.50;4951815;28;20022;-69
2023/07/06 08:46:04;;;;;;;13.93;8.50;;;;;;;26.72;nan;100332.91;4967869;28;20031;-69
2023/07/06 08:48:34;;;;;;;12.52;7.85;;;;;;;26.78;nan;100334.28;4969546;28;20030;-69
2023/07/06 08:51:34;;;;;;;11.75;8.40;;;;;;;26.83;nan;100325.97;4966989;28;20037;-70
2023/07/06 08:54:03;;;;;;;12.50;8.48;;;;;;;26.93;nan;100338.22;4967229;28;20066;-70
2023/07/06 08:56:36;;;;;;;15.73;8.40;;;;;;;27.07;nan;100343.31;4972172;28;20085;-69
2023/07/06 08:59:07;;;;;;;10.85;8.38;;;;;;;27.11;nan;100334.19;4971478;28;20141;-72
2023/07/06 09:01:34;;;;;;;9.55;7.75;;;;;;;27.10;nan;100340.72;4947807;28;20022;-71
2023/07/06 09:04:06;;;;;;;13.70;8.15;;;;;;;27.15;nan;100324.28;4968231;28;20038;-72
2023/07/06 09:06:32;;;;;;;9.80;7.93;;;;;;;27.23;nan;100329.94;4980947;28;20037;-72
2023/07/06 09:09:01;;;;;;;10.95;8.02;;;;;;;27.38;nan;100326.53;4970276;28;20023;-73
2023/07/06 09:11:30;;;;;;;11.38;8.20;;;;;;;27.45;nan;100334.09;4948404;28;20030;-72
2023/07/06 09:13:58;;;;;;;9.75;8.20;;;;;;;27.50;nan;100333.84;4967980;28;20035;-69
2023/07/06 09:16:25;;;;;;;9.20;7.95;;;;;;;27.49;nan;100324.19;4964254;28;20037;-70
2023/07/06 09:18:55;;;;;;;15.77;9.10;;;;;;;27.55;nan;100326.28;4965667;28;20097;-70
2023/07/06 09:21:25;;;;;;;10.90;7.70;;;;;;;27.69;nan;100330.56;4966987;28;20030;-69
2023/07/06 09:23:52;;;;;;;13.65;7.47;;;;;;;27.68;nan;100321.66;4969400;28;20034;-69
2023/07/06 09:26:31;;;;;;;12.38;8.18;;;;;;;27.83;nan;100331.00;4972461;28;20078;-68
2023/07/06 09:29:21;;;;;;;9.93;7.43;;;;;;;27.85;nan;100320.63;4989151;28;20117;-72
2023/07/06 09:31:47;;;;;;;9.95;7.40;;;;;;;27.99;nan;100331.84;4986595;28;20037;-71
2023/07/06 09:34:26;;;;;;;10.65;7.82;;;;;;;28.07;nan;100329.34;4972251;28;20078;-69
2023/07/06 09:36:51;;;;;;;12.50;7.63;;;;;;;28.12;nan;100323.66;4971104;28;20051;-69
2023/07/06 09:39:17;;;;;;;12.65;7.65;;;;;;;28.16;nan;100313.72;4950821;28;20030;-70
2023/07/06 09:41:44;;;;;;;11.23;8.10;;;;;;;28.28;nan;100326.41;4951347;28;20027;-69
2023/07/06 09:44:32;;;;;;;13.60;8.13;;;;;;;28.36;nan;100317.34;4947441;28;20035;-69
2023/07/06 09:46:59;;;;;;;11.40;8.02;;;;;;;28.45;nan;100309.84;4984473;28;20034;-69
2023/07/06 09:49:35;;;;;;;11.20;7.40;;;;;;;28.55;nan;100303.94;4967273;28;20038;-69
2023/07/06 09:52:05;;;;;;;13.32;7.82;;;;;;;28.71;nan;100297.72;4969004;28;20043;-71
2023/07/06 09:54:43;;;;;;;12.10;8.30;;;;;;;28.74;nan;100303.25;4966661;28;20027;-69
2023/07/06 09:57:14;;;;;;;11.97;8.30;;;;;;;28.86;nan;100309.72;4944484;28;20027;-70
2023/07/06 09:59:45;;;;;;;15.38;9.30;;;;;;;28.93;nan;100305.25;4965691;28;20088;-69
2023/07/06 10:02:33;;;;;;;10.85;8.23;;;;;;;28.97;nan;100291.75;4966630;28;20026;-69
2023/07/06 10:05:27;;;;;;;13.20;8.35;;;;;;;29.05;nan;100301.66;4967866;28;20031;-68
2023/07/06 10:08:11;;;;;;;12.20;8.30;;;;;;;29.10;nan;100287.06;4965593;28;20067;-69
2023/07/06 10:11:03;;;;;;;11.30;8.55;;;;;;;29.17;nan;100300.78;4971079;28;20496;-70
2023/07/06 10:13:32;;;;;;;11.45;7.95;;;;;;;29.24;nan;100298.22;4971817;28;20062;-70
2023/07/06 10:16:07;;;;;;;12.65;8.18;;;;;;;29.30;nan;100294.09;4971353;28;20154;-74
2023/07/06 10:18:52;;;;;;;12.40;8.27;;;;;;;29.33;nan;100287.16;4971126;28;20030;-70
2023/07/06 10:21:17;;;;;;;11.05;8.68;;;;;;;29.44;nan;100291.69;4971119;28;20052;-69
2023/07/06 10:24:08;;;;;;;14.00;8.85;;;;;;;29.52;nan;100284.47;4971166;28;20038;-71
2023/07/06 10:26:38;;;;;;;12.93;8.05;;;;;;;29.57;nan;100273.34;4971145;28;20488;-74
2023/07/06 10:29:11;;;;;;;11.18;8.48;;;;;;;29.65;nan;100271.56;4988899;28;20472;-71
2023/07/06 10:31:46;;;;;;;12.05;9.07;;;;;;;29.74;nan;100271.34;4975611;28;20042;-72
2023/07/06 10:34:39;;;;;;;12.48;8.45;;;;;;;29.81;nan;100255.22;4971544;28;20027;-71
2023/07/06 10:37:07;;;;;;;11.40;8.52;;;;;;;29.86;nan;100258.44;4967411;28;20114;-72
2023/07/06 10:39:32;;;;;;;10.45;8.20;;;;;;;29.90;nan;100253.84;4957484;28;20066;-69
2023/07/06 10:42:03;;;;;;;13.50;8.93;;;;;;;29.97;nan;100245.06;4978305;28;20487;-69
2023/07/06 10:44:43;;;;;;;11.38;8.40;;;;;;;30.06;nan;100252.97;4977496;28;20094;-70
2023/07/06 10:47:35;;;;;;;17.88;8.57;;;;;;;30.20;nan;100250.50;4977752;28;20027;-70
2023/07/06 10:50:28;;;;;;;16.15;8.18;;;;;;;30.36;nan;100244.19;4977930;28;20118;-72
2023/07/06 10:53:01;;;;;;;14.68;8.55;;;;;;;30.45;nan;100252.88;4978062;28;20043;-71
2023/07/06 10:55:36;;;;;;;10.88;8.65;;;;;;;30.45;nan;100261.03;4974989;28;20022;-70
2023/07/06 10:58:25;;;;;;;13.80;8.32;;;;;;;30.53;nan;100268.19;4974348;28;20042;-69
2023/07/06 11:00:53;;;;;;;9.32;7.68;;;;;;;30.44;nan;100264.91;4971443;28;20030;-68
2023/07/06 11:03:23;;;;;;;12.85;8.68;;;;;;;30.15;nan;100279.91;4972231;28;20502;-69
2023/07/06 11:06:11;;;;;;;15.02;6.30;;;;;;;28.99;nan;100309.25;4956878;28;20543;-72
2023/07/06 11:08:55;;;;;;;19.80;7.70;;;;;;;;;;4973531;28;20038;-69
2023/07/06 11:11:26;;;;;;;15.68;6.45;;;;;;;27.93;nan;100308.06;4953295;28;20034;-69
2023/07/06 11:13:53;;;;;;;9.32;6.50;;;;;;;27.56;nan;100305.47;4978726;28;20084;-72
2023/07/06 11:16:26;;;;;;;13.27;6.95;;;;;;;26.73;nan;100299.38;4973594;28;20061;-73
2023/07/06 11:18:55;;;;;;;11.57;7.28;;;;;;;26.51;nan;100301.34;4974776;28;20037;-70
2023/07/06 11:21:43;;;;;;;16.55;8.65;;;;;;;25.35;nan;100321.81;4964039;28;20035;-74
2023/07/06 11:24:16;;;;;;;21.77;9.00;;;;;;;24.65;nan;100329.38;4979042;28;20121;-70
2023/07/06 11:26:56;;;;;;;13.20;7.53;;;;;;;24.62;nan;100336.19;4976767;28;20515;-71
2023/07/06 11:29:29;;;;;;;10.95;5.53;;;;;;;24.47;nan;100342.09;4974444;28;20539;-69
2023/07/06 11:32:25;;;;;;;11.10;5.30;;;;;;;24.49;nan;100339.06;4975482;28;20482;-72
2023/07/06 11:35:24;;;;;;;7.75;5.18;;;;;;;24.48;nan;100356.34;4982838;28;20484;-69
2023/07/06 11:38:15;;;;;;;8.32;4.93;;;;;;;24.65;nan;100387.84;5008196;28;20031;-65
2023/07/06 11:41:31;;;;;;;;;;;;;;;;;;;;;
2023/07/06 11:44:39;;;;;;;10.77;5.93;;;;;;;24.58;nan;100377.53;4942724;28;20046;-67
2023/07/06 11:48:04;;;;;;;9.90;5.53;;;;;;;24.40;nan;100369.47;4984992;28;20034;-67
2023/07/06 11:50:37;;;;;;;10.98;6.40;;;;;;;24.02;nan;100363.16;4926377;29;20027;-68
2023/07/06 12:02:51;;;;;;;20.60;17.70;;;;;;;23.75;nan;100332.75;4978023;28;20063;-71
2023/07/06 12:05:48;;;;;;;10.82;6.95;;;;;;;23.83;nan;100334.66;4977105;28;20420;-72